METAR KILM 192353Z 02009KT 3SM RA BR OVC008 04/03 A3006 RMK AO2 SFC VIS 4 CIG 004V010 PRESFR SLP179 P0006 60062 T00390033 10044 20039 58003 
METAR KILM 192353Z 02009KT 3SM RA BR OVC008 04/03 A3006 RMK AO2 SFC VIS 4 CIG 004V010 PRESFR SLP179 P0006 60062 T00390033 10044 20039 58003 
SPECI KILM 192330Z 01005KT 3SM -RA BR BKN006 OVC021 04/03 A3008 RMK AO2 SFC VIS 6 P0003 
SPECI KILM 192330Z 01005KT 3SM -RA BR BKN006 OVC021 04/03 A3008 RMK AO2 SFC VIS 6 P0003 
SPECI KILM 192310Z 02007KT 3SM RA BR FEW006 BKN024 OVC085 04/03 A3007 RMK AO2 SFC VIS 6 P0002 
SPECI KILM 192310Z 02007KT 3SM RA BR FEW006 BKN024 OVC085 04/03 A3007 RMK AO2 SFC VIS 6 P0002 
METAR KILM 192253Z 01008KT 3SM RA BR FEW008 BKN032 OVC085 04/03 A3008 RMK AO2 SFC VIS 5 SLP184 P0005 T00390033 
METAR KILM 192253Z 01008KT 3SM RA BR FEW008 BKN032 OVC085 04/03 A3008 RMK AO2 SFC VIS 5 SLP184 P0005 T00390033 
SPECI KILM 192243Z 02008KT 3SM RA BR SCT008 BKN037 OVC080 04/03 A3008 RMK AO2 SFC VIS 5 P0004 
SPECI KILM 192243Z 02008KT 3SM RA BR SCT008 BKN037 OVC080 04/03 A3008 RMK AO2 SFC VIS 5 P0004 
METAR KILM 192153Z 02008KT 3SM RA BR BKN006 OVC012 04/03 A3007 RMK AO2 SFC VIS 4 SLP180 P0011 T00390028 
METAR KILM 192153Z 02008KT 3SM RA BR BKN006 OVC012 04/03 A3007 RMK AO2 SFC VIS 4 SLP180 P0011 T00390028 
SPECI KILM 192136Z 35008KT 3SM RA BR BKN008 OVC013 04/03 A3009 RMK AO2 SFC VIS 3 P0009 
SPECI KILM 192133Z 01008KT 2 1/2SM RA BR BKN010 OVC016 04/03 A3008 RMK AO2 SFC VIS 3 P0009 
SPECI KILM 192136Z 35008KT 3SM RA BR BKN008 OVC013 04/03 A3009 RMK AO2 SFC VIS 3 P0009 
SPECI KILM 192133Z 01008KT 2 1/2SM RA BR BKN010 OVC016 04/03 A3008 RMK AO2 SFC VIS 3 P0009 
SPECI KILM 192123Z 01010G17KT 2 1/2SM +RA BR BKN008 OVC019 04/03 A3007 RMK AO2 P0007 
SPECI KILM 192123Z 01010G17KT 2 1/2SM +RA BR BKN008 OVC019 04/03 A3007 RMK AO2 P0007 
METAR KILM 192053Z 01011KT 5SM -RA BR BKN006 BKN011 OVC042 04/03 A3007 RMK AO2 SLP182 P0009 60040 T00390033 56017 
METAR KILM 192053Z 01011KT 5SM -RA BR BKN006 BKN011 OVC042 04/03 A3007 RMK AO2 SLP182 P0009 60040 T00390033 56017 
SPECI KILM 192030Z 01010KT 2SM RA BR BKN009 OVC025 04/03 A3010 RMK AO2 P0007 
SPECI KILM 192030Z 01010KT 2SM RA BR BKN009 OVC025 04/03 A3010 RMK AO2 P0007 
SPECI KILM 192005Z 03010KT 3SM RA BR BKN006 OVC011 04/03 A3009 RMK AO2 CIG 004V007 P0003 
SPECI KILM 192005Z 03010KT 3SM RA BR BKN006 OVC011 04/03 A3009 RMK AO2 CIG 004V007 P0003 
METAR KILM 191953Z 01009KT 2 1/2SM RA BR BKN006 OVC010 04/03 A3009 RMK AO2 CIG 004V008 SLP189 P0018 T00390033 
METAR KILM 191953Z 01009KT 2 1/2SM RA BR BKN006 OVC010 04/03 A3009 RMK AO2 CIG 004V008 SLP189 P0018 T00390033 
SPECI KILM 191903Z 02010KT 2SM +RA BR BKN006 OVC013 04/03 A3008 RMK AO2 P0002 
SPECI KILM 191903Z 02010KT 2SM +RA BR BKN006 OVC013 04/03 A3008 RMK AO2 P0002 
METAR KILM 191853Z 03011KT 3SM -RA BR BKN006 OVC010 04/03 A3007 RMK AO2 SLP182 P0013 T00390033 
METAR KILM 191853Z 03011KT 3SM -RA BR BKN006 OVC010 04/03 A3007 RMK AO2 SLP182 P0013 T00390033 
SPECI KILM 191846Z 02010KT 3SM RA BR BKN006 BKN009 OVC027 04/03 A3009 RMK AO2 P0012 
SPECI KILM 191846Z 02010KT 3SM RA BR BKN006 BKN009 OVC027 04/03 A3009 RMK AO2 P0012 
SPECI KILM 191840Z 04011KT 1 3/4SM RA BR OVC006 04/03 A3008 RMK AO2 P0011 
SPECI KILM 191840Z 04011KT 1 3/4SM RA BR OVC006 04/03 A3008 RMK AO2 P0011 
SPECI KILM 191830Z 02011KT 2SM RA BR BKN006 OVC010 04/03 A3009 RMK AO2 P0008 
SPECI KILM 191830Z 02011KT 2SM RA BR BKN006 OVC010 04/03 A3009 RMK AO2 P0008 
SPECI KILM 191817Z 02013KT 1 1/4SM +RA BR OVC007 04/03 A3011 RMK AO2 P0005 
SPECI KILM 191817Z 02013KT 1 1/4SM +RA BR OVC007 04/03 A3011 RMK AO2 P0005 
METAR KILM 191753Z 01011KT 1 3/4SM RA BR FEW007 BKN011 OVC024 04/03 A3012 RMK AO2 SLP199 P0007 60021 T00440033 10050 20044 58019 
METAR KILM 191753Z 01011KT 1 3/4SM RA BR FEW007 BKN011 OVC024 04/03 A3012 RMK AO2 SLP199 P0007 60021 T00440033 10050 20044 58019 
SPECI KILM 191722Z 02011G18KT 1 3/4SM RA BR FEW007 BKN022 OVC031 04/04 A3015 RMK AO2 P0003 
SPECI KILM 191722Z 02011G18KT 1 3/4SM RA BR FEW007 BKN022 OVC031 04/04 A3015 RMK AO2 P0003 
SPECI KILM 191715Z 02011G18KT 2SM -RA BR BKN009 BKN015 OVC029 04/03 A3015 RMK AO2 P0002 
SPECI KILM 191715Z 02011G18KT 2SM -RA BR BKN009 BKN015 OVC029 04/03 A3015 RMK AO2 P0002 
SPECI KILM 191702Z 01010KT 1 1/2SM RA BR BKN009 OVC015 04/04 A3016 RMK AO2 P0001 
SPECI KILM 191702Z 01010KT 1 1/2SM RA BR BKN009 OVC015 04/04 A3016 RMK AO2 P0001 
METAR KILM 191653Z 01011KT 1SM +RA BR FEW006 BKN010 OVC028 04/04 A3016 RMK AO2 SLP212 P0008 T00440039 
METAR KILM 191653Z 01011KT 1SM +RA BR FEW006 BKN010 OVC028 04/04 A3016 RMK AO2 SLP212 P0008 T00440039 
SPECI KILM 191630Z 01012KT 1 3/4SM -RA BR FEW010 BKN028 OVC039 04/04 A3016 RMK AO2 P0002 
SPECI KILM 191630Z 01012KT 1 3/4SM -RA BR FEW010 BKN028 OVC039 04/04 A3016 RMK AO2 P0002 
METAR KILM 191553Z 04009KT 2 1/2SM RA BR OVC032 05/03 A3016 RMK AO2 SLP213 P0002 T00500033 
METAR KILM 191553Z 04009KT 2 1/2SM RA BR OVC032 05/03 A3016 RMK AO2 SLP213 P0002 T00500033 
METAR KILM 191453Z 03007KT 4SM -RA BR OVC031 05/04 A3018 RMK AO2 SLP218 P0001 60004 T00500039 50007 
METAR KILM 191453Z 03007KT 4SM -RA BR OVC031 05/04 A3018 RMK AO2 SLP218 P0001 60004 T00500039 50007 
METAR KILM 191353Z 04007KT 4SM -RA BR OVC031 05/04 A3018 RMK AO2 SLP219 P0002 T00500039 
METAR KILM 191353Z 04007KT 4SM -RA BR OVC031 05/04 A3018 RMK AO2 SLP219 P0002 T00500039 
METAR KILM 191253Z 03006KT 2 1/2SM -RA BR OVC033 05/04 A3017 RMK AO2 RAB13 SLP215 P0001 T00500039 
METAR KILM 191253Z 03006KT 2 1/2SM -RA BR OVC033 05/04 A3017 RMK AO2 RAB13 SLP215 P0001 T00500039 
SPECI KILM 191245Z 03006KT 1 1/2SM -RA BR OVC031 05/04 A3017 RMK AO2 SFC VIS 2 1/2 RAB13 P0001 
SPECI KILM 191245Z 03006KT 1 1/2SM -RA BR OVC031 05/04 A3017 RMK AO2 SFC VIS 2 1/2 RAB13 P0001 
METAR KILM 191153Z 04006KT 6SM BR SCT035 BKN042 OVC100 05/04 A3016 RMK AO2 RAE52 SLP211 P0001 60007 70011 T00500039 10067 20050 58005 
METAR KILM 191153Z 04006KT 6SM BR SCT035 BKN042 OVC100 05/04 A3016 RMK AO2 RAE52 SLP211 P0001 60007 70011 T00500039 10067 20050 58005 
METAR KILM 191053Z 02006KT 6SM -RA BR OVC040 05/04 A3016 RMK AO2 SLP214 P0001 T00500039 
METAR KILM 191053Z 02006KT 6SM -RA BR OVC040 05/04 A3016 RMK AO2 SLP214 P0001 T00500039 
METAR KILM 190953Z 33004KT 7SM -RA OVC035 05/03 A3018 RMK AO2 SLP219 P0001 T00500033 
METAR KILM 190953Z 33004KT 7SM -RA OVC035 05/03 A3018 RMK AO2 SLP219 P0001 T00500033 
METAR KILM 190853Z 35005KT 8SM -RA OVC035 06/04 A3017 RMK AO2 SLP215 P0001 60004 T00560044 50002 
METAR KILM 190853Z 35005KT 8SM -RA OVC035 06/04 A3017 RMK AO2 SLP215 P0001 60004 T00560044 50002 
METAR KILM 190753Z 35004KT 6SM -RA BR OVC042 06/04 A3018 RMK AO2 SLP217 P0002 T00610044 
METAR KILM 190753Z 35004KT 6SM -RA BR OVC042 06/04 A3018 RMK AO2 SLP217 P0002 T00610044 
METAR KILM 190653Z 33007KT 7SM -RA BKN050 OVC065 06/04 A3019 RMK AO2 RAB01 SLP221 P0001 T00610039 
METAR KILM 190653Z 33007KT 7SM -RA BKN050 OVC065 06/04 A3019 RMK AO2 RAB01 SLP221 P0001 T00610039 
METAR KILM 190553Z 00000KT 7SM BKN095 OVC110 07/04 A3016 RMK AO2 RAB02E15 SLP213 P0000 60004 T00670044 10089 20061 55014 
METAR KILM 190553Z 00000KT 7SM BKN095 OVC110 07/04 A3016 RMK AO2 RAB02E15 SLP213 P0000 60004 T00670044 10089 20061 55014 
METAR KILM 190453Z 05003KT 7SM OVC100 07/05 A3013 RMK AO2 RAB0358E45 SLP204 P0000 T00670050 401110033 
METAR KILM 190453Z 05003KT 7SM OVC100 07/05 A3013 RMK AO2 RAB0358E45 SLP204 P0000 T00670050 401110033 
METAR KILM 190353Z 00000KT 8SM FEW080 OVC110 07/04 A3018 RMK AO2 RAE03 SLP218 P0000 T00670044 
METAR KILM 190353Z 00000KT 8SM FEW080 OVC110 07/04 A3018 RMK AO2 RAE03 SLP218 P0000 T00670044 
METAR KILM 190253Z 00000KT 9SM -RA BKN070 OVC095 07/04 A3021 RMK AO2 SLP228 P0003 60004 T00670039 50011 
METAR KILM 190253Z 00000KT 9SM -RA BKN070 OVC095 07/04 A3021 RMK AO2 SLP228 P0003 60004 T00670039 50011 
METAR KILM 190153Z 34004KT 8SM -RA BKN065 OVC100 07/05 A3021 RMK AO2 SLP230 P0001 T00720050 
METAR KILM 190153Z 34004KT 8SM -RA BKN065 OVC100 07/05 A3021 RMK AO2 SLP230 P0001 T00720050 
METAR KILM 190053Z 36003KT 10SM -RA SCT080 OVC095 08/04 A3019 RMK AO2 RAB16 SLP222 P0000 T00780039 
METAR KILM 190053Z 36003KT 10SM -RA SCT080 OVC095 08/04 A3019 RMK AO2 RAB16 SLP222 P0000 T00780039 
METAR KILM 182353Z 02003KT 10SM OVC100 09/03 A3017 RMK AO2 SLP216 T00890028 10111 20089 58002 
METAR KILM 182353Z 02003KT 10SM OVC100 09/03 A3017 RMK AO2 SLP216 T00890028 10111 20089 58002 
METAR KILM 182253Z 34003KT 10SM BKN110 09/02 A3018 RMK AO2 SLP219 T00890022 
METAR KILM 182253Z 34003KT 10SM BKN110 09/02 A3018 RMK AO2 SLP219 T00890022 
METAR KILM 182153Z 34004KT 10SM CLR 09/02 A3018 RMK AO2 SLP220 T00940017 
METAR KILM 182153Z 34004KT 10SM CLR 09/02 A3018 RMK AO2 SLP220 T00940017 
METAR KILM 182053Z 01005KT 10SM CLR 11/01 A3018 RMK AO2 SLP219 T01060011 58005 
METAR KILM 182053Z 01005KT 10SM CLR 11/01 A3018 RMK AO2 SLP219 T01060011 58005 
METAR KILM 181953Z 29005KT 10SM CLR 11/00 A3020 RMK AO2 SLP226 T01110000 
METAR KILM 181953Z 29005KT 10SM CLR 11/00 A3020 RMK AO2 SLP226 T01110000 
METAR KILM 181853Z 00000KT 10SM CLR 11/00 A3018 RMK AO2 SLP220 T01060000 
METAR KILM 181853Z 00000KT 10SM CLR 11/00 A3018 RMK AO2 SLP220 T01060000 
METAR KILM 181753Z 35006KT 10SM CLR 11/01 A3019 RMK AO2 SLP224 T01060006 10106 20033 58024 
METAR KILM 181753Z 35006KT 10SM CLR 11/01 A3019 RMK AO2 SLP224 T01060006 10106 20033 58024